sensor_id;sensor_type;location;lat;lon;timestamp;temperature;humidity
9881;DHT22;4979;51.014;6.678;2023-04-24T00:00:54;11.30;99.90
9881;DHT22;4979;51.014;6.678;2023-04-24T00:03:22;11.30;99.90
9881;DHT22;4979;51.014;6.678;2023-04-24T00:05:48;11.30;99.90
9881;DHT22;4979;51.014;6.678;2023-04-24T00:08:13;11.30;99.90
9881;DHT22;4979;51.014;6.678;2023-04-24T00:10:39;11.30;99.90
9881;DHT22;4979;51.014;6.678;2023-04-24T00:13:05;11.30;99.90
9881;DHT22;4979;51.014;6.678;2023-04-24T00:15:30;11.30;99.90
9881;DHT22;4979;51.014;6.678;2023-04-24T00:17:56;11.40;99.90
9881;DHT22;4979;51.014;6.678;2023-04-24T00:20:21;11.40;99.90
9881;DHT22;4979;51.014;6.678;2023-04-24T00:22:47;11.30;99.90
9881;DHT22;4979;51.014;6.678;2023-04-24T00:25:13;11.40;99.90
9881;DHT22;4979;51.014;6.678;2023-04-24T00:27:39;11.40;99.90
9881;DHT22;4979;51.014;6.678;2023-04-24T00:30:05;11.40;99.90
9881;DHT22;4979;51.014;6.678;2023-04-24T00:32:31;11.40;99.90
9881;DHT22;4979;51.014;6.678;2023-04-24T00:34:56;11.40;99.90
9881;DHT22;4979;51.014;6.678;2023-04-24T00:37:22;11.30;99.90
9881;DHT22;4979;51.014;6.678;2023-04-24T00:39:48;11.40;99.90
9881;DHT22;4979;51.014;6.678;2023-04-24T00:42:13;11.40;99.90
9881;DHT22;4979;51.014;6.678;2023-04-24T00:44:39;11.40;99.90
9881;DHT22;4979;51.014;6.678;2023-04-24T00:49:31;11.30;99.90
9881;DHT22;4979;51.014;6.678;2023-04-24T00:51:56;11.30;99.90
9881;DHT22;4979;51.014;6.678;2023-04-24T00:54:24;11.30;99.90
9881;DHT22;4979;51.014;6.678;2023-04-24T00:56:50;11.20;99.90
9881;DHT22;4979;51.014;6.678;2023-04-24T00:59:17;11.10;99.90
9881;DHT22;4979;51.014;6.678;2023-04-24T01:01:43;11.10;99.90
9881;DHT22;4979;51.014;6.678;2023-04-24T01:04:11;11.00;99.90
9881;DHT22;4979;51.014;6.678;2023-04-24T01:06:39;11.00;99.90
9881;DHT22;4979;51.014;6.678;2023-04-24T01:09:05;10.90;99.90
9881;DHT22;4979;51.014;6.678;2023-04-24T01:11:33;10.70;99.90
9881;DHT22;4979;51.014;6.678;2023-04-24T01:13:59;10.60;99.90
9881;DHT22;4979;51.014;6.678;2023-04-24T01:16:25;10.50;99.90
9881;DHT22;4979;51.014;6.678;2023-04-24T01:18:51;10.40;99.90
9881;DHT22;4979;51.014;6.678;2023-04-24T01:21:17;10.40;99.90
9881;DHT22;4979;51.014;6.678;2023-04-24T01:23:44;10.30;99.90
9881;DHT22;4979;51.014;6.678;2023-04-24T01:26:12;10.30;99.90
9881;DHT22;4979;51.014;6.678;2023-04-24T01:28:37;10.30;99.90
9881;DHT22;4979;51.014;6.678;2023-04-24T01:31:03;10.20;99.90
9881;DHT22;4979;51.014;6.678;2023-04-24T01:33:29;10.10;99.90
9881;DHT22;4979;51.014;6.678;2023-04-24T01:35:55;10.10;99.90
9881;DHT22;4979;51.014;6.678;2023-04-24T01:38:20;10.10;99.90
9881;DHT22;4979;51.014;6.678;2023-04-24T01:40:46;10.00;99.90
9881;DHT22;4979;51.014;6.678;2023-04-24T01:43:12;10.00;99.90
9881;DHT22;4979;51.014;6.678;2023-04-24T01:48:04;10.00;99.90
9881;DHT22;4979;51.014;6.678;2023-04-24T01:50:30;10.00;99.90
9881;DHT22;4979;51.014;6.678;2023-04-24T01:55:22;10.00;99.90
9881;DHT22;4979;51.014;6.678;2023-04-24T01:57:47;10.00;99.90
9881;DHT22;4979;51.014;6.678;2023-04-24T02:00:14;9.90;99.90
9881;DHT22;4979;51.014;6.678;2023-04-24T02:02:40;9.90;99.90
9881;DHT22;4979;51.014;6.678;2023-04-24T02:05:07;9.90;99.90
9881;DHT22;4979;51.014;6.678;2023-04-24T02:07:33;10.00;99.90
9881;DHT22;4979;51.014;6.678;2023-04-24T02:09:59;9.90;99.90
9881;DHT22;4979;51.014;6.678;2023-04-24T02:12:24;10.00;99.90
9881;DHT22;4979;51.014;6.678;2023-04-24T02:14:50;10.00;99.90
9881;DHT22;4979;51.014;6.678;2023-04-24T02:17:16;10.10;99.90
9881;DHT22;4979;51.014;6.678;2023-04-24T02:19:42;10.00;99.90
9881;DHT22;4979;51.014;6.678;2023-04-24T02:22:07;10.00;99.90
9881;DHT22;4979;51.014;6.678;2023-04-24T02:24:33;10.00;99.90
9881;DHT22;4979;51.014;6.678;2023-04-24T02:26:58;10.10;99.90
9881;DHT22;4979;51.014;6.678;2023-04-24T02:29:24;10.10;99.90
9881;DHT22;4979;51.014;6.678;2023-04-24T02:31:49;10.10;99.90
9881;DHT22;4979;51.014;6.678;2023-04-24T02:34:15;10.10;99.90
9881;DHT22;4979;51.014;6.678;2023-04-24T02:36:41;10.10;99.90
9881;DHT22;4979;51.014;6.678;2023-04-24T02:39:07;10.10;99.90
9881;DHT22;4979;51.014;6.678;2023-04-24T02:46:25;10.10;99.90
9881;DHT22;4979;51.014;6.678;2023-04-24T02:53:42;10.10;99.90
9881;DHT22;4979;51.014;6.678;2023-04-24T02:56:08;10.00;99.90
9881;DHT22;4979;51.014;6.678;2023-04-24T02:58:33;10.00;99.90
9881;DHT22;4979;51.014;6.678;2023-04-24T03:00:59;10.00;99.90
9881;DHT22;4979;51.014;6.678;2023-04-24T03:03:26;10.00;99.90
9881;DHT22;4979;51.014;6.678;2023-04-24T03:05:51;10.00;99.90
9881;DHT22;4979;51.014;6.678;2023-04-24T03:10:43;9.90;99.90
9881;DHT22;4979;51.014;6.678;2023-04-24T03:13:08;9.90;99.90
9881;DHT22;4979;51.014;6.678;2023-04-24T03:15:34;10.00;99.90
9881;DHT22;4979;51.014;6.678;2023-04-24T03:20:26;9.90;99.90
9881;DHT22;4979;51.014;6.678;2023-04-24T03:25:18;9.90;99.90
9881;DHT22;4979;51.014;6.678;2023-04-24T03:27:43;10.00;99.90
9881;DHT22;4979;51.014;6.678;2023-04-24T03:30:09;9.90;99.90
9881;DHT22;4979;51.014;6.678;2023-04-24T03:32:35;9.90;99.90
9881;DHT22;4979;51.014;6.678;2023-04-24T03:35:01;9.90;99.90
9881;DHT22;4979;51.014;6.678;2023-04-24T03:37:27;9.90;99.90
9881;DHT22;4979;51.014;6.678;2023-04-24T03:39:52;9.90;99.90
9881;DHT22;4979;51.014;6.678;2023-04-24T03:42:18;9.90;99.90
9881;DHT22;4979;51.014;6.678;2023-04-24T03:44:44;10.00;99.90
9881;DHT22;4979;51.014;6.678;2023-04-24T03:47:09;9.90;99.90
9881;DHT22;4979;51.014;6.678;2023-04-24T03:49:35;10.00;99.90
9881;DHT22;4979;51.014;6.678;2023-04-24T03:52:00;9.90;99.90
9881;DHT22;4979;51.014;6.678;2023-04-24T03:56:52;9.90;99.90
9881;DHT22;4979;51.014;6.678;2023-04-24T03:59:18;9.80;99.90
9881;DHT22;4979;51.014;6.678;2023-04-24T04:01:43;9.80;99.90
9881;DHT22;4979;51.014;6.678;2023-04-24T04:04:10;9.80;99.90
9881;DHT22;4979;51.014;6.678;2023-04-24T04:09:02;9.90;99.90
9881;DHT22;4979;51.014;6.678;2023-04-24T04:11:28;9.80;99.90
9881;DHT22;4979;51.014;6.678;2023-04-24T04:13:54;9.80;99.90
9881;DHT22;4979;51.014;6.678;2023-04-24T04:16:20;9.80;99.90
9881;DHT22;4979;51.014;6.678;2023-04-24T04:18:45;9.90;99.90
9881;DHT22;4979;51.014;6.678;2023-04-24T04:21:11;9.90;99.90
9881;DHT22;4979;51.014;6.678;2023-04-24T04:23:37;9.80;99.90
9881;DHT22;4979;51.014;6.678;2023-04-24T04:26:03;9.80;99.90
9881;DHT22;4979;51.014;6.678;2023-04-24T04:28:29;9.80;99.90
9881;DHT22;4979;51.014;6.678;2023-04-24T04:30:58;9.80;99.90
9881;DHT22;4979;51.014;6.678;2023-04-24T04:33:24;9.80;99.90
9881;DHT22;4979;51.014;6.678;2023-04-24T04:35:50;9.80;99.90
9881;DHT22;4979;51.014;6.678;2023-04-24T04:38:19;9.80;99.90
9881;DHT22;4979;51.014;6.678;2023-04-24T04:40:45;9.80;99.90
9881;DHT22;4979;51.014;6.678;2023-04-24T04:43:11;9.80;99.90
9881;DHT22;4979;51.014;6.678;2023-04-24T04:45:38;9.80;99.90
9881;DHT22;4979;51.014;6.678;2023-04-24T04:48:05;9.80;99.90
9881;DHT22;4979;51.014;6.678;2023-04-24T04:50:33;9.80;99.90
9881;DHT22;4979;51.014;6.678;2023-04-24T04:52:58;9.80;99.90
9881;DHT22;4979;51.014;6.678;2023-04-24T04:55:24;9.80;99.90
9881;DHT22;4979;51.014;6.678;2023-04-24T04:57:50;9.80;99.90
9881;DHT22;4979;51.014;6.678;2023-04-24T05:05:08;9.80;99.90
9881;DHT22;4979;51.014;6.678;2023-04-24T05:07:34;9.80;99.90
9881;DHT22;4979;51.014;6.678;2023-04-24T05:09:59;9.80;99.90
9881;DHT22;4979;51.014;6.678;2023-04-24T05:12:25;9.70;99.90
9881;DHT22;4979;51.014;6.678;2023-04-24T05:14:50;9.70;99.90
9881;DHT22;4979;51.014;6.678;2023-04-24T05:17:16;9.70;99.90
9881;DHT22;4979;51.014;6.678;2023-04-24T05:19:42;9.70;99.90
9881;DHT22;4979;51.014;6.678;2023-04-24T05:22:08;9.70;99.90
9881;DHT22;4979;51.014;6.678;2023-04-24T05:24:35;9.70;99.90
9881;DHT22;4979;51.014;6.678;2023-04-24T05:27:04;9.70;99.90
9881;DHT22;4979;51.014;6.678;2023-04-24T05:29:30;9.60;99.90
9881;DHT22;4979;51.014;6.678;2023-04-24T05:31:57;9.60;99.90
9881;DHT22;4979;51.014;6.678;2023-04-24T05:34:23;9.50;99.90
9881;DHT22;4979;51.014;6.678;2023-04-24T05:36:49;9.40;99.90
9881;DHT22;4979;51.014;6.678;2023-04-24T05:39:16;9.40;99.90
9881;DHT22;4979;51.014;6.678;2023-04-24T05:41:41;9.50;99.90
9881;DHT22;4979;51.014;6.678;2023-04-24T05:44:07;9.60;99.90
9881;DHT22;4979;51.014;6.678;2023-04-24T05:46:32;9.60;99.90
9881;DHT22;4979;51.014;6.678;2023-04-24T05:48:58;9.50;99.90
9881;DHT22;4979;51.014;6.678;2023-04-24T05:51:24;9.60;99.90
9881;DHT22;4979;51.014;6.678;2023-04-24T05:53:50;9.50;99.90
9881;DHT22;4979;51.014;6.678;2023-04-24T05:56:16;9.50;99.90
9881;DHT22;4979;51.014;6.678;2023-04-24T05:58:41;9.50;99.90
9881;DHT22;4979;51.014;6.678;2023-04-24T06:01:07;9.60;99.90
9881;DHT22;4979;51.014;6.678;2023-04-24T06:03:33;9.60;99.90
9881;DHT22;4979;51.014;6.678;2023-04-24T06:05:58;9.60;99.90
9881;DHT22;4979;51.014;6.678;2023-04-24T06:08:24;9.60;99.90
9881;DHT22;4979;51.014;6.678;2023-04-24T06:15:42;9.50;99.90
9881;DHT22;4979;51.014;6.678;2023-04-24T06:18:08;9.40;99.90
9881;DHT22;4979;51.014;6.678;2023-04-24T06:20:36;9.40;99.90
9881;DHT22;4979;51.014;6.678;2023-04-24T06:23:01;9.40;99.90
9881;DHT22;4979;51.014;6.678;2023-04-24T06:25:28;9.30;99.90
9881;DHT22;4979;51.014;6.678;2023-04-24T06:27:54;9.30;99.90
9881;DHT22;4979;51.014;6.678;2023-04-24T06:32:45;9.30;99.90
9881;DHT22;4979;51.014;6.678;2023-04-24T06:37:39;9.20;99.90
9881;DHT22;4979;51.014;6.678;2023-04-24T06:40:05;9.10;99.90
9881;DHT22;4979;51.014;6.678;2023-04-24T06:42:31;9.10;99.90
9881;DHT22;4979;51.014;6.678;2023-04-24T06:52:16;9.20;99.90
9881;DHT22;4979;51.014;6.678;2023-04-24T06:54:41;9.00;99.90
9881;DHT22;4979;51.014;6.678;2023-04-24T06:57:08;9.10;99.90
9881;DHT22;4979;51.014;6.678;2023-04-24T06:59:33;9.10;99.90
9881;DHT22;4979;51.014;6.678;2023-04-24T07:02:00;9.10;99.90
9881;DHT22;4979;51.014;6.678;2023-04-24T07:04:25;9.10;99.90
9881;DHT22;4979;51.014;6.678;2023-04-24T07:09:19;9.10;99.90
9881;DHT22;4979;51.014;6.678;2023-04-24T07:11:45;9.00;99.90
9881;DHT22;4979;51.014;6.678;2023-04-24T07:23:57;9.10;99.90
9881;DHT22;4979;51.014;6.678;2023-04-24T07:26:23;9.00;99.90
9881;DHT22;4979;51.014;6.678;2023-04-24T07:31:14;9.00;99.90
9881;DHT22;4979;51.014;6.678;2023-04-24T07:33:40;8.90;99.90
9881;DHT22;4979;51.014;6.678;2023-04-24T07:36:06;8.90;99.90
9881;DHT22;4979;51.014;6.678;2023-04-24T07:43:23;8.80;99.90
9881;DHT22;4979;51.014;6.678;2023-04-24T07:45:52;8.60;99.90
9881;DHT22;4979;51.014;6.678;2023-04-24T07:48:18;8.50;99.90
9881;DHT22;4979;51.014;6.678;2023-04-24T07:50:44;8.50;99.90
9881;DHT22;4979;51.014;6.678;2023-04-24T07:53:10;8.40;99.90
9881;DHT22;4979;51.014;6.678;2023-04-24T07:55:36;8.40;99.90
9881;DHT22;4979;51.014;6.678;2023-04-24T07:58:02;8.30;99.90
9881;DHT22;4979;51.014;6.678;2023-04-24T08:02:53;8.30;99.90
9881;DHT22;4979;51.014;6.678;2023-04-24T08:07:46;8.30;99.90
9881;DHT22;4979;51.014;6.678;2023-04-24T08:10:14;8.30;99.90
9881;DHT22;4979;51.014;6.678;2023-04-24T08:12:40;8.30;99.90
9881;DHT22;4979;51.014;6.678;2023-04-24T08:15:06;8.30;99.90
9881;DHT22;4979;51.014;6.678;2023-04-24T08:17:33;8.30;99.90
9881;DHT22;4979;51.014;6.678;2023-04-24T08:19:59;8.20;99.90
9881;DHT22;4979;51.014;6.678;2023-04-24T08:22:27;8.20;99.90
9881;DHT22;4979;51.014;6.678;2023-04-24T08:29:45;8.20;99.90
9881;DHT22;4979;51.014;6.678;2023-04-24T08:34:37;8.30;99.90
9881;DHT22;4979;51.014;6.678;2023-04-24T08:39:28;8.20;99.90
9881;DHT22;4979;51.014;6.678;2023-04-24T08:41:55;8.30;99.90
9881;DHT22;4979;51.014;6.678;2023-04-24T08:44:21;8.20;99.90
9881;DHT22;4979;51.014;6.678;2023-04-24T08:46:48;8.20;99.90
9881;DHT22;4979;51.014;6.678;2023-04-24T08:49:14;8.20;99.90
9881;DHT22;4979;51.014;6.678;2023-04-24T08:51:44;8.20;99.90
9881;DHT22;4979;51.014;6.678;2023-04-24T08:54:12;8.20;99.90
9881;DHT22;4979;51.014;6.678;2023-04-24T08:56:38;8.20;99.90
9881;DHT22;4979;51.014;6.678;2023-04-24T08:59:06;8.30;99.90
9881;DHT22;4979;51.014;6.678;2023-04-24T09:01:32;8.30;99.90
9881;DHT22;4979;51.014;6.678;2023-04-24T09:04:04;8.40;99.90
9881;DHT22;4979;51.014;6.678;2023-04-24T09:06:30;8.40;99.90
9881;DHT22;4979;51.014;6.678;2023-04-24T09:09:00;8.40;99.90
9881;DHT22;4979;51.014;6.678;2023-04-24T09:11:26;8.50;99.90
9881;DHT22;4979;51.014;6.678;2023-04-24T09:13:53;8.50;99.90
9881;DHT22;4979;51.014;6.678;2023-04-24T09:16:19;8.50;99.90
9881;DHT22;4979;51.014;6.678;2023-04-24T09:21:12;8.60;99.90
9881;DHT22;4979;51.014;6.678;2023-04-24T09:23:38;8.60;99.90
9881;DHT22;4979;51.014;6.678;2023-04-24T09:28:39;8.80;99.90
9881;DHT22;4979;51.014;6.678;2023-04-24T09:31:17;8.80;99.90
9881;DHT22;4979;51.014;6.678;2023-04-24T09:34:03;8.90;99.90
9881;DHT22;4979;51.014;6.678;2023-04-24T09:36:38;8.90;99.90
9881;DHT22;4979;51.014;6.678;2023-04-24T09:39:12;9.00;99.90
9881;DHT22;4979;51.014;6.678;2023-04-24T09:41:53;9.10;99.90
9881;DHT22;4979;51.014;6.678;2023-04-24T09:44:24;9.20;99.90
9881;DHT22;4979;51.014;6.678;2023-04-24T09:46:59;9.20;99.90
9881;DHT22;4979;51.014;6.678;2023-04-24T09:49:27;9.40;99.90
9881;DHT22;4979;51.014;6.678;2023-04-24T09:52:07;9.30;99.90
9881;DHT22;4979;51.014;6.678;2023-04-24T09:56:59;9.40;99.90
9881;DHT22;4979;51.014;6.678;2023-04-24T09:59:28;9.50;99.90
9881;DHT22;4979;51.014;6.678;2023-04-24T10:01:53;9.60;99.90
9881;DHT22;4979;51.014;6.678;2023-04-24T10:04:20;9.60;99.90
9881;DHT22;4979;51.014;6.678;2023-04-24T10:06:47;9.80;99.90
9881;DHT22;4979;51.014;6.678;2023-04-24T10:09:18;9.80;99.90
9881;DHT22;4979;51.014;6.678;2023-04-24T10:11:45;9.90;99.90
9881;DHT22;4979;51.014;6.678;2023-04-24T10:14:16;10.00;99.90
9881;DHT22;4979;51.014;6.678;2023-04-24T10:19:09;10.20;99.90
9881;DHT22;4979;51.014;6.678;2023-04-24T10:21:35;10.20;99.90
9881;DHT22;4979;51.014;6.678;2023-04-24T10:26:30;10.10;99.90
9881;DHT22;4979;51.014;6.678;2023-04-24T10:28:57;10.10;99.90
9881;DHT22;4979;51.014;6.678;2023-04-24T10:31:23;10.10;99.90
9881;DHT22;4979;51.014;6.678;2023-04-24T10:33:50;10.20;99.90
9881;DHT22;4979;51.014;6.678;2023-04-24T10:36:17;10.10;99.90
9881;DHT22;4979;51.014;6.678;2023-04-24T10:38:45;10.10;99.90
9881;DHT22;4979;51.014;6.678;2023-04-24T10:41:12;10.30;99.90
9881;DHT22;4979;51.014;6.678;2023-04-24T10:43:45;10.30;99.90
9881;DHT22;4979;51.014;6.678;2023-04-24T10:46:18;10.20;99.90
9881;DHT22;4979;51.014;6.678;2023-04-24T10:48:54;10.20;99.90
9881;DHT22;4979;51.014;6.678;2023-04-24T10:51:22;10.10;99.90
9881;DHT22;4979;51.014;6.678;2023-04-24T10:53:52;10.00;99.90
9881;DHT22;4979;51.014;6.678;2023-04-24T10:56:18;10.00;99.90
9881;DHT22;4979;51.014;6.678;2023-04-24T10:58:49;9.90;99.90
9881;DHT22;4979;51.014;6.678;2023-04-24T11:01:31;9.80;99.90
9881;DHT22;4979;51.014;6.678;2023-04-24T11:04:02;10.10;99.90
9881;DHT22;4979;51.014;6.678;2023-04-24T11:06:36;10.40;99.90
9881;DHT22;4979;51.014;6.678;2023-04-24T11:09:07;10.60;99.90
9881;DHT22;4979;51.014;6.678;2023-04-24T11:11:33;11.20;99.90
9881;DHT22;4979;51.014;6.678;2023-04-24T11:16:30;11.20;99.90
9881;DHT22;4979;51.014;6.678;2023-04-24T11:19:02;11.10;99.90
9881;DHT22;4979;51.014;6.678;2023-04-24T11:21:32;11.00;99.90
9881;DHT22;4979;51.014;6.678;2023-04-24T11:24:29;11.10;99.90
9881;DHT22;4979;51.014;6.678;2023-04-24T11:27:17;11.10;99.90
9881;DHT22;4979;51.014;6.678;2023-04-24T11:32:24;10.90;99.90
9881;DHT22;4979;51.014;6.678;2023-04-24T11:37:24;11.00;99.90
9881;DHT22;4979;51.014;6.678;2023-04-24T11:39:51;11.30;99.90
9881;DHT22;4979;51.014;6.678;2023-04-24T11:42:18;11.30;99.90
9881;DHT22;4979;51.014;6.678;2023-04-24T11:44:45;11.30;99.90
9881;DHT22;4979;51.014;6.678;2023-04-24T11:47:12;11.40;99.90
9881;DHT22;4979;51.014;6.678;2023-04-24T11:49:42;11.20;99.90
9881;DHT22;4979;51.014;6.678;2023-04-24T11:52:08;11.10;99.90
9881;DHT22;4979;51.014;6.678;2023-04-24T11:57:04;10.90;99.90
9881;DHT22;4979;51.014;6.678;2023-04-24T11:59:30;10.90;99.90
9881;DHT22;4979;51.014;6.678;2023-04-24T12:02:00;10.90;99.90
9881;DHT22;4979;51.014;6.678;2023-04-24T12:07:17;10.90;99.90
9881;DHT22;4979;51.014;6.678;2023-04-24T12:10:04;10.90;99.90
9881;DHT22;4979;51.014;6.678;2023-04-24T12:12:31;11.00;99.90
9881;DHT22;4979;51.014;6.678;2023-04-24T12:14:57;11.40;99.90
9881;DHT22;4979;51.014;6.678;2023-04-24T12:17:28;11.70;99.90
9881;DHT22;4979;51.014;6.678;2023-04-24T12:19:58;12.00;99.90
9881;DHT22;4979;51.014;6.678;2023-04-24T12:22:24;12.40;99.90
9881;DHT22;4979;51.014;6.678;2023-04-24T12:25:16;12.70;99.90
9881;DHT22;4979;51.014;6.678;2023-04-24T12:27:51;12.30;99.90
9881;DHT22;4979;51.014;6.678;2023-04-24T12:30:19;12.10;99.90
9881;DHT22;4979;51.014;6.678;2023-04-24T12:32:49;11.90;99.90
9881;DHT22;4979;51.014;6.678;2023-04-24T12:35:20;11.70;99.90
9881;DHT22;4979;51.014;6.678;2023-04-24T12:37:49;11.70;99.90
9881;DHT22;4979;51.014;6.678;2023-04-24T12:40:16;11.70;99.90
9881;DHT22;4979;51.014;6.678;2023-04-24T12:42:44;11.70;99.90
9881;DHT22;4979;51.014;6.678;2023-04-24T12:45:10;11.70;99.90
9881;DHT22;4979;51.014;6.678;2023-04-24T12:47:38;11.70;99.90
9881;DHT22;4979;51.014;6.678;2023-04-24T12:50:05;11.70;99.90
9881;DHT22;4979;51.014;6.678;2023-04-24T12:54:59;12.10;99.90
9881;DHT22;4979;51.014;6.678;2023-04-24T12:57:26;12.50;99.90
9881;DHT22;4979;51.014;6.678;2023-04-24T12:59:56;12.70;99.90
9881;DHT22;4979;51.014;6.678;2023-04-24T13:02:26;12.70;99.90
9881;DHT22;4979;51.014;6.678;2023-04-24T13:04:52;12.60;99.90
9881;DHT22;4979;51.014;6.678;2023-04-24T13:07:18;12.50;99.90
9881;DHT22;4979;51.014;6.678;2023-04-24T13:09:44;12.70;99.90
9881;DHT22;4979;51.014;6.678;2023-04-24T13:12:11;12.70;99.90
9881;DHT22;4979;51.014;6.678;2023-04-24T13:17:03;12.70;99.90
9881;DHT22;4979;51.014;6.678;2023-04-24T13:19:34;12.50;99.90
9881;DHT22;4979;51.014;6.678;2023-04-24T13:24:26;12.80;99.90
9881;DHT22;4979;51.014;6.678;2023-04-24T13:26:52;12.80;99.90
9881;DHT22;4979;51.014;6.678;2023-04-24T13:29:18;12.70;99.90
9881;DHT22;4979;51.014;6.678;2023-04-24T13:36:36;12.30;99.90
9881;DHT22;4979;51.014;6.678;2023-04-24T13:39:02;11.90;99.90
9881;DHT22;4979;51.014;6.678;2023-04-24T13:41:30;11.70;99.90
9881;DHT22;4979;51.014;6.678;2023-04-24T13:43:55;11.60;99.90
9881;DHT22;4979;51.014;6.678;2023-04-24T13:46:21;11.70;99.90
9881;DHT22;4979;51.014;6.678;2023-04-24T13:48:47;12.20;99.90
9881;DHT22;4979;51.014;6.678;2023-04-24T13:56:05;12.80;99.90
9881;DHT22;4979;51.014;6.678;2023-04-24T14:10:47;12.30;99.90
9881;DHT22;4979;51.014;6.678;2023-04-24T14:15:39;12.50;99.90
9881;DHT22;4979;51.014;6.678;2023-04-24T14:18:05;12.50;99.90
9881;DHT22;4979;51.014;6.678;2023-04-24T14:20:30;12.90;99.90
9881;DHT22;4979;51.014;6.678;2023-04-24T14:27:50;12.80;99.90
9881;DHT22;4979;51.014;6.678;2023-04-24T14:32:42;13.40;99.90
9881;DHT22;4979;51.014;6.678;2023-04-24T14:35:08;13.40;99.90
9881;DHT22;4979;51.014;6.678;2023-04-24T14:37:34;13.00;99.90
9881;DHT22;4979;51.014;6.678;2023-04-24T14:47:20;13.10;99.90
9881;DHT22;4979;51.014;6.678;2023-04-24T14:49:47;13.10;99.90
9881;DHT22;4979;51.014;6.678;2023-04-24T14:52:13;13.30;99.90
9881;DHT22;4979;51.014;6.678;2023-04-24T14:54:39;13.40;99.90
9881;DHT22;4979;51.014;6.678;2023-04-24T14:57:04;13.30;99.90
9881;DHT22;4979;51.014;6.678;2023-04-24T14:59:30;13.20;99.90
9881;DHT22;4979;51.014;6.678;2023-04-24T15:04:26;13.10;99.90
9881;DHT22;4979;51.014;6.678;2023-04-24T15:09:24;13.30;99.90
9881;DHT22;4979;51.014;6.678;2023-04-24T15:11:50;12.80;99.90
9881;DHT22;4979;51.014;6.678;2023-04-24T15:14:17;12.80;99.90
9881;DHT22;4979;51.014;6.678;2023-04-24T15:16:43;12.80;99.90
9881;DHT22;4979;51.014;6.678;2023-04-24T15:21:38;13.30;99.90
9881;DHT22;4979;51.014;6.678;2023-04-24T15:26:31;13.30;99.90
9881;DHT22;4979;51.014;6.678;2023-04-24T15:28:57;13.60;99.90
9881;DHT22;4979;51.014;6.678;2023-04-24T15:33:51;13.50;99.90
9881;DHT22;4979;51.014;6.678;2023-04-24T15:36:17;13.30;99.90
9881;DHT22;4979;51.014;6.678;2023-04-24T15:38:44;13.30;99.90
9881;DHT22;4979;51.014;6.678;2023-04-24T15:41:10;13.40;99.90
9881;DHT22;4979;51.014;6.678;2023-04-24T15:48:31;13.10;99.90
9881;DHT22;4979;51.014;6.678;2023-04-24T15:53:23;13.10;99.90
9881;DHT22;4979;51.014;6.678;2023-04-24T15:55:52;13.20;99.90
9881;DHT22;4979;51.014;6.678;2023-04-24T15:58:19;13.20;99.90
9881;DHT22;4979;51.014;6.678;2023-04-24T16:08:04;13.50;99.90
9881;DHT22;4979;51.014;6.678;2023-04-24T16:10:29;13.50;99.90
9881;DHT22;4979;51.014;6.678;2023-04-24T16:15:21;13.30;99.90
9881;DHT22;4979;51.014;6.678;2023-04-24T16:17:49;13.30;99.90
9881;DHT22;4979;51.014;6.678;2023-04-24T16:25:08;13.00;99.90
9881;DHT22;4979;51.014;6.678;2023-04-24T16:27:34;12.80;99.90
9881;DHT22;4979;51.014;6.678;2023-04-24T16:37:18;12.80;99.90
9881;DHT22;4979;51.014;6.678;2023-04-24T16:42:11;12.90;99.90
9881;DHT22;4979;51.014;6.678;2023-04-24T16:47:07;13.10;99.90
9881;DHT22;4979;51.014;6.678;2023-04-24T16:51:59;13.10;99.90
9881;DHT22;4979;51.014;6.678;2023-04-24T16:54:25;13.00;99.90
9881;DHT22;4979;51.014;6.678;2023-04-24T16:56:52;13.00;99.90
9881;DHT22;4979;51.014;6.678;2023-04-24T16:59:18;12.80;99.90
9881;DHT22;4979;51.014;6.678;2023-04-24T17:09:02;12.90;99.90
9881;DHT22;4979;51.014;6.678;2023-04-24T17:11:28;13.00;99.90
9881;DHT22;4979;51.014;6.678;2023-04-24T17:13:54;12.90;99.90
9881;DHT22;4979;51.014;6.678;2023-04-24T17:16:22;12.90;99.90
9881;DHT22;4979;51.014;6.678;2023-04-24T17:18:48;12.90;99.90
9881;DHT22;4979;51.014;6.678;2023-04-24T17:21:13;12.90;99.90
9881;DHT22;4979;51.014;6.678;2023-04-24T17:23:39;12.80;99.90
9881;DHT22;4979;51.014;6.678;2023-04-24T17:26:05;12.50;99.90
9881;DHT22;4979;51.014;6.678;2023-04-24T17:28:31;12.50;99.90
9881;DHT22;4979;51.014;6.678;2023-04-24T17:30:57;12.40;99.90
9881;DHT22;4979;51.014;6.678;2023-04-24T17:33:27;12.20;99.90
9881;DHT22;4979;51.014;6.678;2023-04-24T17:35:53;12.10;99.90
9881;DHT22;4979;51.014;6.678;2023-04-24T17:38:19;12.10;99.90
9881;DHT22;4979;51.014;6.678;2023-04-24T17:40:45;12.40;99.90
9881;DHT22;4979;51.014;6.678;2023-04-24T17:43:14;12.40;99.90
9881;DHT22;4979;51.014;6.678;2023-04-24T17:45:46;12.30;99.90
9881;DHT22;4979;51.014;6.678;2023-04-24T17:48:12;12.50;99.90
9881;DHT22;4979;51.014;6.678;2023-04-24T17:50:38;12.50;99.90
9881;DHT22;4979;51.014;6.678;2023-04-24T17:53:04;12.10;99.90
9881;DHT22;4979;51.014;6.678;2023-04-24T17:57:56;11.90;99.90
9881;DHT22;4979;51.014;6.678;2023-04-24T18:00:21;11.90;99.90
9881;DHT22;4979;51.014;6.678;2023-04-24T18:07:41;11.40;99.90
9881;DHT22;4979;51.014;6.678;2023-04-24T18:10:07;11.30;99.90
9881;DHT22;4979;51.014;6.678;2023-04-24T18:14:59;11.10;99.90
9881;DHT22;4979;51.014;6.678;2023-04-24T18:19:50;11.00;99.90
9881;DHT22;4979;51.014;6.678;2023-04-24T18:24:43;10.70;99.90
9881;DHT22;4979;51.014;6.678;2023-04-24T18:27:08;10.70;99.90
9881;DHT22;4979;51.014;6.678;2023-04-24T18:29:34;10.60;99.90
9881;DHT22;4979;51.014;6.678;2023-04-24T18:34:25;10.50;99.90
9881;DHT22;4979;51.014;6.678;2023-04-24T18:36:51;10.40;99.90
9881;DHT22;4979;51.014;6.678;2023-04-24T18:39:16;10.40;99.90
9881;DHT22;4979;51.014;6.678;2023-04-24T18:41:42;10.30;99.90
9881;DHT22;4979;51.014;6.678;2023-04-24T18:44:07;10.30;99.90
9881;DHT22;4979;51.014;6.678;2023-04-24T18:46:34;10.20;99.90
9881;DHT22;4979;51.014;6.678;2023-04-24T18:53:55;10.00;99.90
9881;DHT22;4979;51.014;6.678;2023-04-24T18:58:46;9.90;99.90
9881;DHT22;4979;51.014;6.678;2023-04-24T19:01:12;9.80;99.90
9881;DHT22;4979;51.014;6.678;2023-04-24T19:03:38;9.90;99.90
9881;DHT22;4979;51.014;6.678;2023-04-24T19:06:03;9.90;99.90
9881;DHT22;4979;51.014;6.678;2023-04-24T19:08:29;9.90;99.90
9881;DHT22;4979;51.014;6.678;2023-04-24T19:13:20;9.90;99.90
9881;DHT22;4979;51.014;6.678;2023-04-24T19:18:12;9.80;99.90
9881;DHT22;4979;51.014;6.678;2023-04-24T19:20:38;9.80;99.90
9881;DHT22;4979;51.014;6.678;2023-04-24T19:25:30;9.80;99.90
9881;DHT22;4979;51.014;6.678;2023-04-24T19:27:55;9.70;99.90
9881;DHT22;4979;51.014;6.678;2023-04-24T19:30:22;9.70;99.90
9881;DHT22;4979;51.014;6.678;2023-04-24T19:32:47;9.70;99.90
9881;DHT22;4979;51.014;6.678;2023-04-24T19:37:39;9.70;99.90
9881;DHT22;4979;51.014;6.678;2023-04-24T19:40:05;9.60;99.90
9881;DHT22;4979;51.014;6.678;2023-04-24T19:44:57;9.60;99.90
9881;DHT22;4979;51.014;6.678;2023-04-24T19:47:22;9.60;99.90
9881;DHT22;4979;51.014;6.678;2023-04-24T19:54:40;9.50;99.90
9881;DHT22;4979;51.014;6.678;2023-04-24T19:57:06;9.50;99.90
9881;DHT22;4979;51.014;6.678;2023-04-24T20:01:58;9.40;99.90
9881;DHT22;4979;51.014;6.678;2023-04-24T20:04:23;9.40;99.90
9881;DHT22;4979;51.014;6.678;2023-04-24T20:06:49;9.30;99.90
9881;DHT22;4979;51.014;6.678;2023-04-24T20:09:15;9.30;99.90
9881;DHT22;4979;51.014;6.678;2023-04-24T20:11:42;9.20;99.90
9881;DHT22;4979;51.014;6.678;2023-04-24T20:14:10;9.20;99.90
9881;DHT22;4979;51.014;6.678;2023-04-24T20:21:29;9.20;99.90
9881;DHT22;4979;51.014;6.678;2023-04-24T20:28:48;9.00;99.90
9881;DHT22;4979;51.014;6.678;2023-04-24T20:31:14;9.00;99.90
9881;DHT22;4979;51.014;6.678;2023-04-24T20:33:41;9.00;99.90